Time;durP1;ratioP1;P1;durP2;ratioP2;P2;SDS_P1;SDS_P2;PMS_P1;PMS_P2;Temp;Humidity;BMP_temperature;BMP_pressure;BME280_temperature;BME280_humidity;BME280_pressure;Samples;Min_cycle;Max_cycle;Signal;HPM_P1;HPM_P2
2022/05/26 00:00:12;;;;;;;7.75;4.78;;;9.00;99.90;;;;;;5114396;27;20315;-80
2022/05/26 00:02:40;;;;;;;11.02;4.60;;;8.90;99.90;;;;;;5116178;27;20136;-80
2022/05/26 00:05:08;;;;;;;12.48;4.57;;;8.90;99.90;;;;;;5116856;27;20127;-80
2022/05/26 00:07:36;;;;;;;8.27;4.47;;;8.80;99.90;;;;;;5122818;27;20073;-80
2022/05/26 00:10:04;;;;;;;8.10;4.53;;;8.70;99.90;;;;;;5119435;27;20108;-80
2022/05/26 00:12:35;;;;;;;10.13;4.55;;;8.80;99.90;;;;;;5110834;27;20480;-80
2022/05/26 00:15:03;;;;;;;8.52;4.85;;;8.80;99.90;;;;;;5127039;27;20047;-80
2022/05/26 00:17:31;;;;;;;14.10;4.68;;;8.80;99.90;;;;;;5113478;27;20142;-80
2022/05/26 00:19:59;;;;;;;6.53;4.60;;;8.80;99.90;;;;;;5117560;27;20059;-79
2022/05/26 00:22:27;;;;;;;7.72;4.45;;;8.80;99.90;;;;;;5123877;27;20043;-79
2022/05/26 00:24:54;;;;;;;8.30;4.43;;;8.80;99.90;;;;;;5114585;27;20055;-78
2022/05/26 00:27:22;;;;;;;11.38;5.03;;;8.70;99.90;;;;;;5131437;27;20047;-77
2022/05/26 00:29:51;;;;;;;6.38;3.60;;;8.60;99.90;;;;;;5130215;27;20059;-78
2022/05/26 00:32:18;;;;;;;7.07;4.60;;;8.60;99.90;;;;;;5118451;27;20035;-77
2022/05/26 00:34:45;;;;;;;6.63;3.63;;;8.60;99.90;;;;;;5130878;27;20100;-78
2022/05/26 00:37:13;;;;;;;6.25;4.50;;;8.60;99.90;;;;;;5124270;27;20065;-79
2022/05/26 00:39:40;;;;;;;8.13;4.13;;;8.50;99.90;;;;;;5119731;27;20035;-79
2022/05/26 00:42:10;;;;;;;7.88;4.38;;;8.60;99.90;;;;;;5123814;27;20463;-78
2022/05/26 00:44:38;;;;;;;6.82;3.78;;;8.60;99.90;;;;;;5129772;27;20043;-78
2022/05/26 00:47:12;;;;;;;6.30;3.35;;;8.60;99.90;;;;;;5120287;27;20075;-78
2022/05/26 00:49:47;;;;;;;8.65;3.78;;;8.60;99.90;;;;;;5122401;27;20047;-78
2022/05/26 00:52:17;;;;;;;9.02;3.83;;;8.50;99.90;;;;;;5132718;27;20054;-77
2022/05/26 00:54:47;;;;;;;7.35;3.63;;;8.50;99.90;;;;;;5118485;27;20075;-78
2022/05/26 00:57:20;;;;;;;5.10;4.15;;;8.40;99.90;;;;;;5130470;27;20544;-78
2022/05/26 00:59:54;;;;;;;8.65;3.85;;;8.40;99.90;;;;;;5112666;28;20039;-78
2022/05/26 01:02:32;;;;;;;4.22;3.22;;;8.40;99.90;;;;;;5130092;27;20561;-78
2022/05/26 01:05:05;;;;;;;9.18;3.60;;;8.40;99.90;;;;;;5116926;27;20043;-77
2022/05/26 01:07:37;;;;;;;8.25;3.78;;;8.40;99.90;;;;;;5121095;28;20127;-77
2022/05/26 01:10:06;;;;;;;7.65;3.28;;;8.40;99.90;;;;;;5110291;28;20142;-77
2022/05/26 01:12:33;;;;;;;6.20;3.28;;;8.30;99.90;;;;;;5126893;27;20533;-77
2022/05/26 01:15:07;;;;;;;4.57;3.42;;;8.30;99.90;;;;;;5130526;28;20103;-77
2022/05/26 01:17:54;;;;;;;6.47;3.53;;;8.30;99.90;;;;;;5129066;27;20429;-77
2022/05/26 01:20:48;;;;;;;4.65;3.25;;;8.30;99.90;;;;;;5131734;28;20062;-76
2022/05/26 01:24:01;;;;;;;11.00;3.05;;;8.30;99.90;;;;;;5122997;27;20039;-77
2022/05/26 01:27:15;;;;;;;8.02;2.97;;;8.30;99.90;;;;;;5116003;28;20052;-76
2022/05/26 01:30:05;;;;;;;;;;;8.30;99.90;;;;;;5127999;27;20043;-76
2022/05/26 01:32:49;;;;;;;9.05;3.72;;;8.40;99.90;;;;;;5129166;28;19935;-77
2022/05/26 01:35:25;;;;;;;7.32;2.90;;;8.40;99.90;;;;;;5113936;28;20091;-77
2022/05/26 01:38:09;;;;;;;8.88;3.13;;;8.40;99.90;;;;;;5131208;27;20055;-77
2022/05/26 01:40:41;;;;;;;4.68;3.28;;;8.40;99.90;;;;;;5112347;28;20104;-77
2022/05/26 01:43:17;;;;;;;4.13;2.85;;;8.50;99.90;;;;;;5110658;28;20544;-77
2022/05/26 01:45:53;;;;;;;5.72;3.22;;;8.50;99.90;;;;;;5116435;28;20051;-77
2022/05/26 01:48:29;;;;;;;4.30;2.45;;;8.50;99.90;;;;;;5124087;28;20047;-76
2022/05/26 01:51:03;;;;;;;5.03;2.35;;;8.50;99.90;;;;;;5122819;27;20050;-77
2022/05/26 01:53:43;;;;;;;6.22;2.95;;;8.50;99.90;;;;;;5116121;27;20396;-77
2022/05/26 01:56:19;;;;;;;5.47;3.13;;;8.50;99.90;;;;;;5127592;28;20138;-81
2022/05/26 01:58:53;;;;;;;5.05;2.45;;;8.50;99.90;;;;;;5120075;28;20084;-81
2022/05/26 02:01:27;;;;;;;6.03;3.30;;;8.40;99.90;;;;;;5112466;28;20044;-80
2022/05/26 02:03:58;;;;;;;7.47;3.30;;;8.40;99.90;;;;;;5123969;28;20053;-80
2022/05/26 02:06:31;;;;;;;4.55;2.47;;;8.50;99.90;;;;;;5111038;28;20061;-80
2022/05/26 02:09:06;;;;;;;8.77;3.15;;;8.50;99.90;;;;;;5111883;28;20043;-81
2022/05/26 02:11:36;;;;;;;4.57;2.83;;;8.40;99.90;;;;;;5109165;28;20075;-78
2022/05/26 02:14:11;;;;;;;5.65;2.90;;;8.40;99.90;;;;;;5121169;27;20044;-79
2022/05/26 02:16:44;;;;;;;4.10;2.47;;;8.40;99.90;;;;;;5097251;28;20079;-79
2022/05/26 02:19:18;;;;;;;5.50;2.47;;;8.50;99.90;;;;;;5113941;27;20055;-79
2022/05/26 02:21:50;;;;;;;6.38;2.33;;;8.50;99.90;;;;;;5115067;27;20085;-79
2022/05/26 02:24:25;;;;;;;5.90;2.65;;;8.50;99.90;;;;;;5125444;27;20073;-80
2022/05/26 02:26:52;;;;;;;8.32;2.25;;;8.60;99.90;;;;;;5131070;27;20115;-81
2022/05/26 02:32:20;;;;;;;5.05;2.75;;;8.70;99.90;;;;;;5058176;28;20556;-80
2022/05/26 02:34:51;;;;;;;3.75;2.70;;;8.80;99.90;;;;;;5106343;28;20078;-81
2022/05/26 02:37:20;;;;;;;6.03;2.38;;;8.80;99.90;;;;;;5116294;27;20071;-80
2022/05/26 02:39:47;;;;;;;12.65;3.25;;;8.80;99.90;;;;;;5117542;27;20163;-80
2022/05/26 02:42:15;;;;;;;4.25;2.63;;;8.80;99.90;;;;;;5113414;28;20540;-79
2022/05/26 02:44:44;;;;;;;5.07;2.33;;;8.80;99.90;;;;;;5129175;27;20035;-78
2022/05/26 02:47:46;;;;;;;6.65;2.40;;;8.80;99.90;;;;;;5131487;27;20040;-79
2022/05/26 02:50:33;;;;;;;4.25;2.55;;;8.90;99.90;;;;;;5119732;27;20082;-80
2022/05/26 02:53:11;;;;;;;5.18;2.60;;;8.90;99.90;;;;;;5115552;27;20052;-80
2022/05/26 02:55:53;;;;;;;6.18;2.53;;;8.90;99.90;;;;;;5126758;27;20043;-80
2022/05/26 02:58:35;;;;;;;4.57;2.30;;;9.00;99.90;;;;;;5133112;27;20115;-79
2022/05/26 03:01:11;;;;;;;6.65;2.50;;;8.90;99.90;;;;;;5098687;27;20320;-80
2022/05/26 03:03:46;;;;;;;3.78;2.45;;;9.00;99.90;;;;;;5124377;27;20043;-80
2022/05/26 03:06:20;;;;;;;6.68;2.28;;;9.10;99.90;;;;;;5120564;27;20044;-79
2022/05/26 03:08:48;;;;;;;3.17;2.42;;;9.20;99.90;;;;;;5121613;27;20077;-80
2022/05/26 03:11:20;;;;;;;7.50;2.65;;;9.20;99.90;;;;;;5134538;27;20498;-78
2022/05/26 03:13:50;;;;;;;7.43;2.28;;;9.20;99.90;;;;;;5123852;27;20043;-81
2022/05/26 03:16:18;;;;;;;6.30;3.15;;;9.30;99.90;;;;;;5114360;28;20226;-80
2022/05/26 03:18:46;;;;;;;4.60;2.58;;;9.40;99.90;;;;;;5130318;27;20328;-81
2022/05/26 03:21:17;;;;;;;7.20;2.13;;;9.40;99.90;;;;;;5113257;27;20047;-80
2022/05/26 03:23:44;;;;;;;2.05;1.67;;;9.40;99.90;;;;;;5126853;27;20046;-81
2022/05/26 03:26:12;;;;;;;2.58;2.10;;;9.40;99.90;;;;;;5132846;27;20070;-82
2022/05/26 03:28:40;;;;;;;3.45;2.05;;;9.30;99.90;;;;;;5130712;27;20422;-78
2022/05/26 03:31:09;;;;;;;2.97;2.10;;;9.40;99.90;;;;;;5134083;27;20043;-78
2022/05/26 03:41:54;;;;;;;12.00;2.75;;;9.50;99.90;;;;;;5123033;27;20515;-78
2022/05/26 03:44:24;;;;;;;3.90;2.15;;;9.50;99.90;;;;;;5129493;27;20053;-79
2022/05/26 03:46:52;;;;;;;6.68;2.05;;;9.60;99.90;;;;;;5118388;27;20046;-78
2022/05/26 03:49:20;;;;;;;3.78;2.10;;;9.60;99.90;;;;;;5133551;27;20547;-78
2022/05/26 03:51:49;;;;;;;7.03;2.60;;;9.70;99.90;;;;;;5130780;27;20047;-78
2022/05/26 03:54:17;;;;;;;6.57;2.38;;;9.70;99.90;;;;;;5130513;27;20099;-80
2022/05/26 03:56:45;;;;;;;8.50;3.60;;;9.80;99.90;;;;;;5131412;27;20392;-78
2022/05/26 03:59:12;;;;;;;2.63;1.98;;;9.80;99.90;;;;;;5130122;27;20047;-80
2022/05/26 04:01:40;;;;;;;5.75;1.70;;;9.90;99.90;;;;;;5126105;27;20147;-79
2022/05/26 04:04:08;;;;;;;21.02;4.35;;;10.00;99.90;;;;;;5124504;27;20043;-79
2022/05/26 04:06:36;;;;;;;5.90;2.33;;;10.00;99.90;;;;;;5120615;27;20032;-78
2022/05/26 04:09:05;;;;;;;3.00;2.15;;;10.10;99.90;;;;;;5131834;27;20079;-78
2022/05/26 04:11:33;;;;;;;8.10;4.97;;;10.20;99.90;;;;;;5130766;27;20051;-79
2022/05/26 04:14:00;;;;;;;9.15;2.00;;;10.30;99.90;;;;;;5126229;27;20081;-78
2022/05/26 04:16:28;;;;;;;3.63;1.70;;;10.40;99.90;;;;;;5131863;27;20517;-77
2022/05/26 04:18:55;;;;;;;5.03;2.70;;;10.50;99.90;;;;;;5129181;27;20134;-77
2022/05/26 04:21:23;;;;;;;4.97;1.45;;;10.60;99.90;;;;;;5116419;27;20403;-77
2022/05/26 04:23:50;;;;;;;5.72;1.98;;;10.60;99.90;;;;;;5113677;27;20047;-78
2022/05/26 04:26:20;;;;;;;5.65;1.70;;;10.60;99.90;;;;;;5117751;27;20126;-77
2022/05/26 04:28:48;;;;;;;11.52;1.88;;;10.70;99.90;;;;;;5124001;27;20047;-77
2022/05/26 04:31:18;;;;;;;7.57;2.30;;;10.70;99.90;;;;;;5117462;27;20043;-78
2022/05/26 04:33:46;;;;;;;5.78;1.48;;;10.80;99.90;;;;;;5113726;27;20073;-78
2022/05/26 04:36:13;;;;;;;50.22;10.45;;;10.80;99.90;;;;;;5112059;28;20503;-80
2022/05/26 04:38:40;;;;;;;6.88;1.42;;;10.90;99.90;;;;;;5117953;27;20065;-78
2022/05/26 04:41:08;;;;;;;5.65;1.67;;;10.90;99.90;;;;;;5129713;27;20057;-84
2022/05/26 04:43:38;;;;;;;4.00;1.80;;;10.90;99.90;;;;;;5115500;27;20047;-85
2022/05/26 04:46:06;;;;;;;7.90;2.80;;;10.90;99.90;;;;;;5131815;27;20420;-85
2022/05/26 04:48:33;;;;;;;7.80;1.80;;;10.90;99.90;;;;;;5114316;27;20040;-83
2022/05/26 04:51:01;;;;;;;2.40;1.52;;;11.00;99.90;;;;;;5131246;27;20578;-83
2022/05/26 04:53:29;;;;;;;3.30;2.10;;;10.90;99.90;;;;;;5115464;27;20039;-81
2022/05/26 04:55:57;;;;;;;4.18;1.23;;;11.00;99.90;;;;;;5131709;27;20110;-81
2022/05/26 04:58:24;;;;;;;7.55;2.28;;;11.00;99.90;;;;;;5123950;27;20039;-81
2022/05/26 05:00:53;;;;;;;7.60;1.40;;;11.10;99.90;;;;;;5123330;27;20042;-82
2022/05/26 05:03:20;;;;;;;4.07;1.67;;;11.10;99.90;;;;;;5119294;27;20065;-83
2022/05/26 05:05:48;;;;;;;5.28;1.83;;;11.10;99.90;;;;;;5118576;27;20043;-84
2022/05/26 05:08:16;;;;;;;8.18;3.65;;;11.10;99.90;;;;;;5114981;27;20130;-80
2022/05/26 05:10:46;;;;;;;1.85;1.60;;;11.20;99.90;;;;;;5125520;28;20484;-84
2022/05/26 05:13:15;;;;;;;5.85;1.40;;;11.20;99.90;;;;;;5130920;28;20062;-80
2022/05/26 05:15:52;;;;;;;5.85;1.80;;;11.20;99.90;;;;;;5128275;27;20047;-80
2022/05/26 05:18:21;;;;;;;6.18;2.47;;;11.20;99.90;;;;;;5124588;28;20160;-82
2022/05/26 05:20:49;;;;;;;3.33;1.65;;;11.20;99.90;;;;;;5124144;28;20134;-80
2022/05/26 05:23:17;;;;;;;5.43;1.77;;;11.30;99.90;;;;;;5121300;28;20306;-83
2022/05/26 05:25:49;;;;;;;2.10;1.75;;;11.40;99.90;;;;;;5123890;27;20050;-83
2022/05/26 05:28:21;;;;;;;5.97;1.95;;;11.40;99.90;;;;;;5131192;28;20051;-82
2022/05/26 05:30:53;;;;;;;10.82;1.92;;;11.50;99.90;;;;;;5123078;28;20078;-81
2022/05/26 05:33:26;;;;;;;6.70;1.83;;;11.60;99.90;;;;;;5127396;27;20039;-79
2022/05/26 05:36:05;;;;;;;4.18;1.48;;;11.60;99.90;;;;;;5140695;27;20046;-79
2022/05/26 05:38:34;;;;;;;2.90;1.38;;;11.70;99.90;;;;;;5141599;27;20056;-80
2022/05/26 05:41:02;;;;;;;3.65;1.63;;;11.80;99.90;;;;;;5112575;28;20151;-81
2022/05/26 05:43:33;;;;;;;6.65;1.50;;;11.70;99.90;;;;;;5112682;28;20075;-81
2022/05/26 05:46:01;;;;;;;4.93;1.88;;;11.70;99.90;;;;;;5120884;28;20043;-80
2022/05/26 05:48:31;;;;;;;8.30;2.58;;;11.70;99.90;;;;;;5110336;27;20075;-83
2022/05/26 05:50:59;;;;;;;4.97;1.40;;;11.80;99.90;;;;;;5136669;27;20563;-85
2022/05/26 05:53:28;;;;;;;3.17;1.95;;;11.80;99.90;;;;;;5164730;27;20066;-85
2022/05/26 05:55:55;;;;;;;3.88;1.50;;;11.90;99.90;;;;;;5159630;27;20042;-81
2022/05/26 05:58:25;;;;;;;3.83;1.88;;;12.00;99.90;;;;;;5122966;27;20079;-82
2022/05/26 06:00:54;;;;;;;5.28;1.80;;;12.10;99.90;;;;;;5125649;27;20070;-83
2022/05/26 06:03:22;;;;;;;3.20;1.77;;;12.20;99.90;;;;;;5128616;27;20108;-83
2022/05/26 06:05:51;;;;;;;8.10;1.67;;;12.30;99.90;;;;;;5128202;27;20434;-80
2022/05/26 06:08:20;;;;;;;4.93;1.30;;;12.40;99.90;;;;;;5139122;27;20051;-83
2022/05/26 06:10:48;;;;;;;5.38;1.33;;;12.50;99.90;;;;;;5138474;27;20112;-84
2022/05/26 06:13:16;;;;;;;11.52;7.47;;;12.60;99.90;;;;;;5132346;27;20050;-78
2022/05/26 06:15:46;;;;;;;3.60;1.80;;;12.70;99.90;;;;;;5132840;27;20119;-79
2022/05/26 06:18:16;;;;;;;8.85;1.55;;;12.90;99.90;;;;;;5134684;27;20043;-80
2022/05/26 06:20:46;;;;;;;3.40;1.58;;;13.10;99.90;;;;;;5123719;27;20051;-79
2022/05/26 06:23:19;;;;;;;5.30;1.67;;;13.20;99.90;;;;;;5127461;27;20493;-79
2022/05/26 06:25:48;;;;;;;3.03;1.35;;;13.30;99.90;;;;;;5139173;27;20031;-79
2022/05/26 06:31:01;;;;;;;4.45;1.80;;;13.40;99.90;;;;;;5127931;27;20047;-78
2022/05/26 06:39:07;;;;;;;11.00;1.80;;;13.50;99.90;;;;;;5108888;27;20130;-78
2022/05/26 06:44:20;;;;;;;5.65;1.60;;;13.50;99.90;;;;;;5126718;27;20074;-82
2022/05/26 06:46:47;;;;;;;4.47;1.83;;;13.60;99.90;;;;;;5125001;27;20043;-81
2022/05/26 06:49:15;;;;;;;8.52;1.40;;;13.60;99.90;;;;;;5132045;27;20095;-79
2022/05/26 06:51:43;;;;;;;4.18;1.50;;;13.70;99.90;;;;;;5122747;27;20039;-79
2022/05/26 06:54:13;;;;;;;8.50;2.53;;;13.80;99.90;;;;;;5122144;27;20050;-79
2022/05/26 06:56:40;;;;;;;10.70;1.80;;;13.90;99.90;;;;;;5126580;27;20086;-81
2022/05/26 06:59:08;;;;;;;6.80;1.60;;;13.90;99.90;;;;;;5139563;27;20464;-80
2022/05/26 07:01:35;;;;;;;11.50;2.45;;;14.10;99.90;;;;;;5120459;27;20054;-78
2022/05/26 07:04:03;;;;;;;7.70;2.25;;;14.10;99.90;;;;;;5131627;27;20058;-77
2022/05/26 07:06:31;;;;;;;10.30;2.20;;;14.20;99.90;;;;;;5126931;27;20454;-76
2022/05/26 07:08:59;;;;;;;7.38;2.40;;;14.30;99.90;;;;;;5120806;27;20056;-76
2022/05/26 07:11:28;;;;;;;9.98;2.13;;;14.30;99.90;;;;;;5120701;27;20039;-76
2022/05/26 07:13:57;;;;;;;5.65;1.85;;;14.30;99.90;;;;;;5125062;27;20047;-76
2022/05/26 07:16:24;;;;;;;8.13;2.53;;;14.30;99.90;;;;;;5121271;27;20144;-75
2022/05/26 07:18:54;;;;;;;6.88;2.60;;;14.30;99.90;;;;;;5118274;27;20069;-77
2022/05/26 07:21:23;;;;;;;5.05;2.50;;;14.30;99.90;;;;;;5114225;27;20047;-78
2022/05/26 07:23:51;;;;;;;5.28;2.72;;;14.40;99.90;;;;;;5121132;27;20452;-79
2022/05/26 07:26:19;;;;;;;6.93;2.58;;;14.40;99.90;;;;;;5122841;27;20159;-78
2022/05/26 07:28:52;;;;;;;24.58;14.50;;;14.60;99.90;;;;;;5122267;27;20039;-78
2022/05/26 07:31:20;;;;;;;9.88;2.45;;;14.80;99.90;;;;;;5121765;27;20431;-79
2022/05/26 07:33:48;;;;;;;12.35;2.75;;;14.90;99.90;;;;;;5119862;27;20035;-78
2022/05/26 07:41:54;;;;;;;11.65;2.22;;;15.20;99.90;;;;;;5118403;27;20108;-75
2022/05/26 07:44:24;;;;;;;8.13;1.75;;;15.30;99.90;;;;;;5110406;28;20131;-79
2022/05/26 07:46:52;;;;;;;8.30;2.35;;;15.30;99.90;;;;;;5112598;27;20120;-77
2022/05/26 07:49:19;;;;;;;4.90;1.58;;;15.30;99.90;;;;;;5121807;27;20992;-81
2022/05/26 07:51:47;;;;;;;8.50;1.75;;;15.30;99.90;;;;;;5120049;27;20491;-79
2022/05/26 07:54:14;;;;;;;12.15;1.75;;;15.40;99.90;;;;;;5123853;27;20433;-79
2022/05/26 07:56:42;;;;;;;11.52;8.00;;;15.50;99.90;;;;;;5119584;27;20444;-81
2022/05/26 07:59:11;;;;;;;5.45;1.83;;;15.50;99.90;;;;;;5119502;27;20134;-80
2022/05/26 08:01:40;;;;;;;8.25;2.20;;;15.50;99.90;;;;;;5120623;27;20054;-81
2022/05/26 08:04:08;;;;;;;5.20;2.33;;;15.50;99.90;;;;;;5120324;27;20050;-83
2022/05/26 08:06:37;;;;;;;9.55;2.10;;;15.50;99.90;;;;;;5121521;27;20049;-79
2022/05/26 08:09:04;;;;;;;10.18;2.00;;;15.40;99.90;;;;;;5122143;27;20044;-80
2022/05/26 08:11:32;;;;;;;13.90;2.65;;;15.40;99.90;;;;;;5118400;27;20047;-78
2022/05/26 08:13:59;;;;;;;17.13;2.40;;;15.50;99.90;;;;;;5120997;27;20163;-82
2022/05/26 08:16:27;;;;;;;3.88;1.08;;;15.60;99.90;;;;;;5117075;27;20116;-79
2022/05/26 08:19:00;;;;;;;8.57;1.60;;;15.60;99.50;;;;;;5115566;27;20487;-79
2022/05/26 08:21:27;;;;;;;6.00;1.48;;;15.70;98.70;;;;;;5122713;27;20035;-79
2022/05/26 08:23:54;;;;;;;11.57;3.15;;;15.80;98.00;;;;;;5131401;27;20058;-79
2022/05/26 08:26:22;;;;;;;26.98;3.22;;;15.80;98.40;;;;;;5123720;27;20047;-80
2022/05/26 08:28:50;;;;;;;3.05;1.55;;;15.90;96.60;;;;;;5118893;27;20095;-80
2022/05/26 08:31:17;;;;;;;10.55;1.52;;;15.90;94.10;;;;;;5123600;27;20063;-78
2022/05/26 08:33:45;;;;;;;9.73;1.88;;;15.90;93.80;;;;;;5117689;27;20051;-79
2022/05/26 08:36:17;;;;;;;13.43;2.00;;;15.90;95.60;;;;;;5112856;27;20137;-77
2022/05/26 08:38:45;;;;;;;6.97;1.05;;;15.90;95.00;;;;;;5111777;28;20063;-77
2022/05/26 08:41:18;;;;;;;9.32;1.80;;;15.90;94.40;;;;;;5122567;27;20150;-78
2022/05/26 08:43:54;;;;;;;5.32;1.33;;;16.00;93.30;;;;;;5112657;27;20047;-77
2022/05/26 08:46:22;;;;;;;4.13;1.67;;;15.90;93.00;;;;;;5111863;28;20117;-76
2022/05/26 08:48:57;;;;;;;1.58;1.15;;;16.00;93.70;;;;;;5116019;27;20043;-75
2022/05/26 08:51:41;;;;;;;5.18;1.40;;;16.10;94.80;;;;;;5124134;27;20051;-75
2022/05/26 08:54:17;;;;;;;2.63;1.20;;;16.10;93.10;;;;;;5128635;27;20047;-77
2022/05/26 08:56:46;;;;;;;7.35;1.45;;;16.10;92.80;;;;;;5126186;27;20202;-78
2022/05/26 08:59:17;;;;;;;7.63;1.42;;;16.10;93.70;;;;;;5124512;27;20048;-77
2022/05/26 09:01:45;;;;;;;9.13;1.73;;;16.10;92.90;;;;;;5130069;27;20054;-75
2022/05/26 09:04:15;;;;;;;4.95;1.10;;;16.10;92.80;;;;;;5121177;27;20126;-76
2022/05/26 09:15:13;;;;;;;4.22;1.30;;;16.30;92.70;;;;;;5120883;28;20069;-78
2022/05/26 09:17:41;;;;;;;2.80;1.20;;;16.30;91.90;;;;;;5110488;28;20043;-75
2022/05/26 09:20:38;;;;;;;3.33;1.33;;;16.40;92.70;;;;;;5111130;28;20043;-83
2022/05/26 09:23:22;;;;;;;17.77;2.17;;;16.40;92.80;;;;;;5127032;28;20461;-81
2022/05/26 09:25:53;;;;;;;8.93;1.70;;;16.50;91.00;;;;;;5127378;27;20583;-80
2022/05/26 09:28:31;;;;;;;2.95;1.40;;;16.50;91.20;;;;;;5135753;27;20092;-78
2022/05/26 09:31:24;;;;;;;5.15;3.40;;;16.50;92.10;;;;;;5125729;27;20119;-77
2022/05/26 09:34:17;;;;;;;6.60;1.88;;;16.50;91.60;;;;;;5133109;27;20047;-77
2022/05/26 09:36:50;;;;;;;5.60;2.42;;;16.50;92.30;;;;;;5131229;27;20197;-78
2022/05/26 09:39:30;;;;;;;7.03;1.60;;;16.70;91.70;;;;;;5115581;27;20043;-80
2022/05/26 09:41:59;;;;;;;3.58;1.90;;;16.70;91.10;;;;;;5149609;27;20046;-80
2022/05/26 09:44:36;;;;;;;5.68;1.50;;;16.70;91.30;;;;;;5137775;27;20043;-81
2022/05/26 09:47:20;;;;;;;4.07;1.50;;;16.60;91.90;;;;;;5129686;27;20050;-84
2022/05/26 09:49:52;;;;;;;8.80;1.80;;;16.60;91.00;;;;;;5109098;27;20053;-80
2022/05/26 09:52:23;;;;;;;8.27;1.80;;;16.50;90.90;;;;;;5042935;28;20056;-82
2022/05/26 09:55:16;;;;;;;5.85;1.40;;;16.40;92.40;;;;;;5053159;28;20060;-83
2022/05/26 09:57:44;;;;;;;1.90;1.17;;;16.40;91.70;;;;;;5042960;28;20052;-81
2022/05/26 10:00:37;;;;;;;4.60;1.38;;;16.40;91.40;;;;;;5036747;28;20049;-80
2022/05/26 10:03:11;;;;;;;9.05;1.80;;;16.40;91.20;;;;;;5048861;28;20063;-80
2022/05/26 10:05:46;;;;;;;6.97;1.60;;;16.40;91.80;;;;;;5049514;28;20524;-82
2022/05/26 10:08:23;;;;;;;3.50;1.35;;;16.30;93.40;;;;;;5049382;28;20045;-81
2022/05/26 10:10:59;;;;;;;7.25;1.40;;;16.30;94.00;;;;;;5052464;28;20566;-84
2022/05/26 10:17:13;;;;;;;8.23;1.70;;;16.20;95.30;;;;;;5032845;28;20152;-80
2022/05/26 10:20:12;;;;;;;5.32;1.88;;;16.30;98.50;;;;;;5053009;28;20041;-83
2022/05/26 10:22:49;;;;;;;6.65;1.60;;;16.30;96.70;;;;;;5053171;28;20072;-88
2022/05/26 10:25:32;;;;;;;9.20;2.00;;;16.30;98.00;;;;;;5052341;28;20578;-83
2022/05/26 10:28:35;;;;;;;5.03;1.60;;;16.30;98.00;;;;;;5051954;28;20057;-83
2022/05/26 10:31:14;;;;;;;7.18;2.13;;;16.30;98.30;;;;;;5050206;28;20694;-84
2022/05/26 10:34:08;;;;;;;4.72;1.55;;;16.30;98.20;;;;;;5053556;28;20044;-82
2022/05/26 10:37:02;;;;;;;10.90;1.45;;;16.30;99.90;;;;;;5047454;28;20140;-79
2022/05/26 10:40:01;;;;;;;;;;;;;;;;;;;;;
2022/05/26 10:42:36;;;;;;;5.97;2.22;;;16.10;99.90;;;;;;5049908;28;20056;-81
2022/05/26 10:45:12;;;;;;;3.97;1.65;;;16.10;99.90;;;;;;5047613;28;20460;-80
2022/05/26 10:47:50;;;;;;;4.10;1.80;;;16.10;99.90;;;;;;5030614;28;20136;-80
2022/05/26 10:50:29;;;;;;;8.05;2.45;;;16.10;99.90;;;;;;5047190;28;20083;-80
2022/05/26 10:53:04;;;;;;;5.60;2.20;;;16.10;99.90;;;;;;5045737;28;20501;-81
2022/05/26 10:55:44;;;;;;;4.28;2.05;;;16.10;99.90;;;;;;5049102;28;20069;-80
2022/05/26 10:58:20;;;;;;;7.65;1.70;;;16.20;99.90;;;;;;5046607;28;20141;-81
2022/05/26 11:00:55;;;;;;;4.30;2.08;;;16.20;99.90;;;;;;5044987;28;21012;-81
2022/05/26 11:03:30;;;;;;;3.28;1.80;;;16.30;99.90;;;;;;5047405;28;20262;-78
2022/05/26 11:06:04;;;;;;;3.83;1.45;;;16.30;99.90;;;;;;5048403;28;20053;-79
2022/05/26 11:08:41;;;;;;;7.90;1.60;;;16.40;99.90;;;;;;5047208;28;20041;-78
2022/05/26 11:11:17;;;;;;;2.92;1.42;;;16.50;99.90;;;;;;5043431;28;20484;-78
2022/05/26 11:13:54;;;;;;;6.28;1.88;;;16.50;99.90;;;;;;5046725;28;20103;-78
2022/05/26 11:19:33;;;;;;;4.90;2.88;;;16.30;99.90;;;;;;5045844;28;20536;-78
2022/05/26 11:22:03;;;;;;;5.07;1.98;;;16.30;99.90;;;;;;5050090;28;20140;-78
2022/05/26 11:24:32;;;;;;;5.70;2.15;;;16.20;99.90;;;;;;5046996;28;20512;-78
2022/05/26 11:27:09;;;;;;;3.83;1.90;;;16.10;99.90;;;;;;5049214;28;20065;-77
2022/05/26 11:29:40;;;;;;;5.70;2.10;;;16.10;99.90;;;;;;5048683;28;20158;-80
2022/05/26 11:38:05;;;;;;;10.55;2.25;;;16.00;99.90;;;;;;5048747;28;20049;-79
2022/05/26 11:40:44;;;;;;;9.57;2.28;;;16.00;99.90;;;;;;5046577;28;20865;-80
2022/05/26 11:43:12;;;;;;;12.10;10.23;;;15.90;99.90;;;;;;5046297;28;20505;-78
2022/05/26 11:45:52;;;;;;;5.28;2.80;;;15.90;99.90;;;;;;5047346;28;20451;-78
2022/05/26 11:48:45;;;;;;;5.60;2.22;;;15.90;99.90;;;;;;5045628;28;20049;-78
2022/05/26 11:51:35;;;;;;;3.20;2.22;;;15.90;99.90;;;;;;5047764;28;20517;-78
2022/05/26 11:54:03;;;;;;;7.75;2.42;;;16.00;99.90;;;;;;5047796;28;20076;-78
2022/05/26 11:56:49;;;;;;;2.70;2.35;;;16.00;99.90;;;;;;5046089;28;20413;-78
2022/05/26 11:59:46;;;;;;;3.17;1.65;;;16.00;99.90;;;;;;5046258;28;20045;-79
2022/05/26 12:02:37;;;;;;;8.10;4.95;;;16.00;99.90;;;;;;5047675;28;20071;-77
2022/05/26 12:05:48;;;;;;;34.25;26.08;;;15.90;99.90;;;;;;5048219;28;20505;-82
2022/05/26 12:08:39;;;;;;;7.82;4.25;;;15.80;99.90;;;;;;5029245;28;20140;-77
2022/05/26 12:11:09;;;;;;;2.72;1.42;;;15.80;99.90;;;;;;5049509;28;20238;-78
2022/05/26 12:13:41;;;;;;;4.68;1.65;;;15.80;99.90;;;;;;5047223;28;20393;-78
2022/05/26 12:16:29;;;;;;;2.00;1.27;;;15.80;99.90;;;;;;5045972;28;20072;-78
2022/05/26 12:19:02;;;;;;;4.22;3.30;;;15.80;99.90;;;;;;5046840;28;20103;-79
2022/05/26 12:22:06;;;;;;;5.65;1.60;;;15.90;99.90;;;;;;5048168;28;20561;-77
2022/05/26 12:25:16;;;;;;;4.28;2.75;;;15.90;99.90;;;;;;5045283;28;20416;-76
2022/05/26 12:28:07;;;;;;;3.30;1.60;;;15.80;99.90;;;;;;5045577;28;20068;-77
2022/05/26 12:31:13;;;;;;;;;;;15.70;99.90;;;;;;5047508;28;20045;-79
2022/05/26 12:34:06;;;;;;;2.33;2.13;;;15.60;99.90;;;;;;5045424;28;19932;-79
2022/05/26 12:37:04;;;;;;;4.35;3.22;;;15.50;99.90;;;;;;5043662;28;20049;-77
2022/05/26 12:40:05;;;;;;;3.38;2.35;;;15.40;99.90;;;;;;5045215;28;20391;-77
2022/05/26 12:43:06;;;;;;;2.65;2.20;;;15.30;99.90;;;;;;5047097;28;20098;-79
2022/05/26 12:45:46;;;;;;;5.57;2.00;;;15.20;99.90;;;;;;5047074;28;20416;-78
2022/05/26 12:48:43;;;;;;;5.63;2.47;;;15.20;99.90;;;;;;5047145;28;20127;-79
2022/05/26 12:51:14;;;;;;;3.35;1.70;;;15.10;99.90;;;;;;5049534;28;20095;-79
2022/05/26 12:53:52;;;;;;;4.88;2.50;;;14.90;99.90;;;;;;5049025;28;20051;-81
2022/05/26 12:56:27;;;;;;;3.55;2.53;;;14.90;99.90;;;;;;5035364;28;20053;-81
2022/05/26 12:58:59;;;;;;;5.47;1.98;;;14.80;99.90;;;;;;5047066;28;20076;-81
2022/05/26 13:01:28;;;;;;;2.28;2.05;;;14.80;99.90;;;;;;5045839;28;20057;-81
2022/05/26 13:04:05;;;;;;;4.70;2.50;;;14.80;99.90;;;;;;5044338;28;20052;-77
2022/05/26 13:06:37;;;;;;;10.20;3.05;;;14.80;99.90;;;;;;5044453;28;20448;-77
2022/05/26 13:09:15;;;;;;;5.40;2.95;;;14.70;99.90;;;;;;5048341;28;20049;-78
2022/05/26 13:11:48;;;;;;;4.53;2.80;;;14.70;99.90;;;;;;5048690;28;20049;-78
2022/05/26 13:14:34;;;;;;;5.13;2.45;;;14.70;99.90;;;;;;5045665;28;20075;-77
2022/05/26 13:17:04;;;;;;;7.22;3.35;;;14.70;99.90;;;;;;5045926;28;20084;-78
2022/05/26 13:19:32;;;;;;;5.82;3.25;;;14.70;99.90;;;;;;5047792;28;20049;-76
2022/05/26 13:22:00;;;;;;;7.78;4.72;;;14.70;99.90;;;;;;5048520;28;20049;-77
2022/05/26 13:24:32;;;;;;;8.75;3.63;;;14.70;99.90;;;;;;5045459;28;20143;-78
2022/05/26 13:27:03;;;;;;;9.43;2.92;;;14.60;99.90;;;;;;5056980;28;20037;-78
2022/05/26 13:29:34;;;;;;;3.20;2.70;;;14.60;99.90;;;;;;5050252;28;20049;-78
2022/05/26 13:34:53;;;;;;;5.65;3.88;;;14.60;99.90;;;;;;5047920;28;20045;-78
2022/05/26 13:37:26;;;;;;;11.23;3.42;;;14.60;99.90;;;;;;5049100;28;20060;-79
2022/05/26 13:40:10;;;;;;;4.13;3.72;;;14.60;99.90;;;;;;5048917;28;20057;-78
2022/05/26 13:42:43;;;;;;;4.55;3.53;;;14.50;99.90;;;;;;5045118;28;20049;-77
2022/05/26 13:45:21;;;;;;;5.13;3.58;;;14.50;99.90;;;;;;5046989;28;20049;-80
2022/05/26 13:47:49;;;;;;;3.55;3.25;;;14.40;99.90;;;;;;5046277;28;20044;-79
2022/05/26 13:50:29;;;;;;;4.22;3.20;;;14.40;99.90;;;;;;5048161;28;20049;-80
2022/05/26 13:52:57;;;;;;;3.17;2.50;;;14.40;99.90;;;;;;5046239;28;20055;-79
2022/05/26 13:55:27;;;;;;;4.72;2.85;;;14.30;99.90;;;;;;5044997;28;20441;-78
2022/05/26 13:57:58;;;;;;;5.30;4.00;;;14.30;99.90;;;;;;5047264;28;20049;-78
2022/05/26 14:00:30;;;;;;;6.82;3.17;;;14.30;99.90;;;;;;5043884;28;20041;-77
2022/05/26 14:03:01;;;;;;;5.38;3.28;;;14.30;99.90;;;;;;5048439;28;20060;-78
2022/05/26 14:05:30;;;;;;;10.27;3.55;;;14.20;99.90;;;;;;5044013;28;20045;-78
2022/05/26 14:08:05;;;;;;;4.57;3.75;;;14.20;99.90;;;;;;5045357;28;20792;-78
2022/05/26 14:10:46;;;;;;;7.07;3.78;;;14.20;99.90;;;;;;5045633;28;20049;-78
2022/05/26 14:13:29;;;;;;;6.70;3.88;;;14.20;99.90;;;;;;5050631;28;20053;-78
2022/05/26 14:16:15;;;;;;;4.75;3.22;;;14.20;99.90;;;;;;5049175;28;20049;-78